Time;durP1;ratioP1;P1;durP2;ratioP2;P2;SDS_P1;SDS_P2;PMS_P1;PMS_P2;Temp;Humidity;BMP_temperature;BMP_pressure;BME280_temperature;BME280_humidity;BME280_pressure;Samples;Min_cycle;Max_cycle;Signal;HPM_P1;HPM_P2
2023/07/03 00:00:45;;;;;;;17.35;9.55;;;16.20;99.90;;;;;;5071146;28;20024;-79
2023/07/03 00:03:13;;;;;;;16.63;8.32;;;16.10;99.90;;;;;;5054702;28;20155;-81
2023/07/03 00:05:44;;;;;;;17.02;9.07;;;16.10;99.90;;;;;;5067776;28;20051;-87
2023/07/03 00:08:18;;;;;;;19.40;9.32;;;16.20;99.90;;;;;;5049440;28;20037;-79
2023/07/03 00:10:44;;;;;;;14.65;8.93;;;16.20;99.90;;;;;;5071948;28;20020;-79
2023/07/03 00:13:10;;;;;;;16.80;9.13;;;16.20;99.90;;;;;;5072992;28;20029;-82
2023/07/03 00:15:37;;;;;;;16.30;8.35;;;16.20;99.90;;;;;;5085457;28;20034;-87
2023/07/03 00:18:03;;;;;;;17.63;9.50;;;16.30;99.90;;;;;;5069599;28;20022;-80
2023/07/03 00:20:30;;;;;;;17.85;8.98;;;16.30;99.90;;;;;;5072649;28;20020;-81
2023/07/03 00:22:56;;;;;;;14.65;8.30;;;16.20;99.90;;;;;;5056616;28;20107;-78
2023/07/03 00:25:23;;;;;;;27.42;10.02;;;16.10;99.90;;;;;;5062892;28;20033;-79
2023/07/03 00:27:49;;;;;;;17.13;8.63;;;16.10;99.90;;;;;;5064800;28;20033;-79
2023/07/03 00:30:16;;;;;;;17.67;8.55;;;16.00;99.90;;;;;;5066870;28;20033;-76
2023/07/03 00:32:42;;;;;;;21.50;8.82;;;15.90;99.90;;;;;;5065085;28;20056;-85
2023/07/03 00:35:09;;;;;;;18.40;8.98;;;15.90;99.90;;;;;;5071811;28;20021;-83
2023/07/03 00:37:35;;;;;;;18.70;9.82;;;15.90;99.90;;;;;;5072234;28;20035;-79
2023/07/03 00:40:03;;;;;;;23.00;10.43;;;15.90;99.90;;;;;;5052586;28;20025;-78
2023/07/03 00:42:29;;;;;;;17.60;9.00;;;16.00;99.90;;;;;;5056726;28;20041;-75
2023/07/03 00:44:56;;;;;;;18.80;9.52;;;16.00;99.90;;;;;;5055334;28;20021;-76
2023/07/03 00:47:24;;;;;;;17.27;8.70;;;16.10;99.90;;;;;;5060496;28;20021;-76
2023/07/03 00:49:51;;;;;;;18.60;9.70;;;16.30;99.90;;;;;;5058740;28;20040;-76
2023/07/03 00:52:17;;;;;;;22.95;10.60;;;16.30;99.90;;;;;;5060546;28;20452;-78
2023/07/03 00:54:44;;;;;;;18.30;8.55;;;16.50;99.90;;;;;;5058841;28;20037;-74
2023/07/03 00:57:12;;;;;;;23.33;10.77;;;16.50;99.90;;;;;;5068738;28;20364;-83
2023/07/03 00:59:38;;;;;;;20.42;9.75;;;16.70;99.90;;;;;;5067016;28;20043;-79
2023/07/03 01:02:22;;;;;;;18.55;9.40;;;16.70;99.90;;;;;;5067429;28;20051;-77
2023/07/03 01:04:59;;;;;;;16.00;8.88;;;16.80;99.90;;;;;;5042741;28;20056;-77
2023/07/03 01:07:30;;;;;;;16.83;8.43;;;17.00;99.90;;;;;;5043898;28;20036;-76
2023/07/03 01:10:11;;;;;;;17.05;8.32;;;17.20;99.90;;;;;;5041004;28;20436;-76
2023/07/03 01:12:43;;;;;;;20.48;8.15;;;17.20;99.90;;;;;;5032136;28;20068;-86
2023/07/03 01:15:12;;;;;;;19.27;8.38;;;17.20;99.90;;;;;;5049855;28;20037;-76
2023/07/03 01:17:41;;;;;;;15.00;8.10;;;17.10;99.90;;;;;;5056147;28;20068;-87
2023/07/03 01:20:13;;;;;;;19.15;7.65;;;17.20;99.90;;;;;;5068854;28;20013;-77
2023/07/03 01:22:49;;;;;;;12.43;7.47;;;17.20;99.90;;;;;;5070026;28;20036;-85
2023/07/03 01:25:19;;;;;;;17.27;7.38;;;17.20;99.90;;;;;;5072419;28;20032;-78
2023/07/03 01:27:49;;;;;;;;;;;17.20;99.90;;;;;;5064607;28;20041;-77
2023/07/03 01:30:18;;;;;;;17.60;7.70;;;17.20;99.90;;;;;;5066803;28;19915;-80
2023/07/03 01:32:47;;;;;;;17.10;9.00;;;17.20;99.90;;;;;;5072585;28;20037;-78
2023/07/03 01:35:15;;;;;;;16.95;8.90;;;17.20;99.90;;;;;;5063065;28;20483;-80
2023/07/03 01:37:48;;;;;;;16.27;8.38;;;17.30;99.90;;;;;;5062858;28;20032;-83
2023/07/03 01:40:18;;;;;;;14.48;8.07;;;17.40;99.90;;;;;;5075535;28;20020;-80
2023/07/03 01:42:46;;;;;;;15.27;7.20;;;17.40;99.90;;;;;;5076227;28;20037;-83
2023/07/03 01:45:13;;;;;;;14.85;8.20;;;17.40;99.90;;;;;;5060418;28;20268;-78
2023/07/03 01:47:39;;;;;;;17.95;7.82;;;17.40;99.90;;;;;;5077220;28;20029;-77
2023/07/03 01:50:10;;;;;;;18.65;7.95;;;17.40;99.90;;;;;;5069908;28;20073;-83
2023/07/03 01:52:43;;;;;;;19.45;8.88;;;17.40;99.90;;;;;;5054934;28;20040;-78
2023/07/03 01:55:30;;;;;;;23.92;10.18;;;17.40;99.90;;;;;;5086877;28;20021;-83
2023/07/03 01:58:13;;;;;;;17.63;8.27;;;17.40;99.90;;;;;;5068223;28;20037;-83
2023/07/03 02:00:48;;;;;;;19.38;8.90;;;17.30;99.90;;;;;;5036717;28;20031;-78
2023/07/03 02:03:44;;;;;;;19.55;8.68;;;17.30;99.90;;;;;;5032450;28;20039;-80
2023/07/03 02:06:28;;;;;;;18.70;8.00;;;17.20;99.90;;;;;;4973831;28;20057;-85
2023/07/03 02:08:55;;;;;;;16.58;8.23;;;17.20;99.90;;;;;;4971015;28;20035;-85
2023/07/03 02:11:22;;;;;;;19.23;8.55;;;17.30;99.90;;;;;;5042438;28;20035;-80
2023/07/03 02:13:52;;;;;;;18.83;8.60;;;17.30;99.90;;;;;;5030295;28;20064;-78
2023/07/03 02:16:23;;;;;;;18.60;7.85;;;17.30;99.90;;;;;;4986589;28;20050;-76
2023/07/03 02:18:50;;;;;;;17.65;8.20;;;17.30;99.90;;;;;;5014950;28;20359;-78
2023/07/03 02:21:16;;;;;;;18.67;8.48;;;17.40;99.90;;;;;;5005549;28;20040;-76
2023/07/03 02:23:43;;;;;;;18.00;8.50;;;17.30;99.90;;;;;;4951181;29;20032;-80
2023/07/03 02:26:10;;;;;;;12.30;7.40;;;17.40;99.90;;;;;;5019542;28;20050;-78
2023/07/03 02:28:36;;;;;;;18.33;9.13;;;17.40;99.90;;;;;;5016156;28;20070;-76
2023/07/03 02:31:03;;;;;;;22.33;8.27;;;17.40;99.90;;;;;;5021175;28;20047;-78
2023/07/03 02:33:30;;;;;;;19.02;9.32;;;17.50;99.90;;;;;;5012832;28;20044;-82
2023/07/03 02:35:56;;;;;;;17.52;8.50;;;17.50;99.90;;;;;;4969153;28;20027;-80
2023/07/03 02:38:22;;;;;;;15.77;8.15;;;17.50;99.90;;;;;;4970303;28;20023;-79
2023/07/03 02:40:49;;;;;;;17.33;8.30;;;17.50;99.90;;;;;;4954746;28;20043;-78
2023/07/03 02:43:15;;;;;;;22.10;9.68;;;17.50;99.90;;;;;;4953487;29;20043;-77
2023/07/03 02:45:42;;;;;;;20.05;9.15;;;17.40;99.90;;;;;;5026567;28;20043;-79
2023/07/03 02:48:11;;;;;;;15.73;8.10;;;17.40;99.90;;;;;;5035704;28;20062;-78
2023/07/03 02:50:42;;;;;;;17.58;9.10;;;17.50;99.90;;;;;;5020569;28;20040;-77
2023/07/03 02:53:08;;;;;;;19.58;8.35;;;17.40;99.90;;;;;;4959953;29;20065;-76
2023/07/03 02:55:36;;;;;;;17.58;9.35;;;17.50;99.90;;;;;;4963744;29;20032;-76
2023/07/03 02:58:02;;;;;;;21.02;10.48;;;17.50;99.90;;;;;;5024095;28;20260;-77
2023/07/03 03:00:32;;;;;;;16.48;9.13;;;17.50;99.90;;;;;;5031978;28;20056;-78
2023/07/03 03:02:59;;;;;;;23.83;10.57;;;17.50;99.90;;;;;;5058315;28;20408;-78
2023/07/03 03:05:26;;;;;;;20.58;9.40;;;17.50;99.90;;;;;;5029964;28;20049;-79
2023/07/03 03:07:52;;;;;;;19.40;9.38;;;17.40;99.90;;;;;;5061730;28;20049;-78
2023/07/03 03:10:18;;;;;;;15.68;8.38;;;17.40;99.90;;;;;;5021385;28;20042;-77
2023/07/03 03:12:44;;;;;;;23.60;10.15;;;17.40;99.90;;;;;;5024477;28;20049;-80
2023/07/03 03:15:11;;;;;;;17.27;9.32;;;17.40;99.90;;;;;;5047737;28;20030;-78
2023/07/03 03:17:37;;;;;;;15.18;8.70;;;17.40;99.90;;;;;;5032013;28;20051;-77
2023/07/03 03:20:04;;;;;;;22.50;9.50;;;17.40;99.90;;;;;;5064534;28;20037;-77
2023/07/03 03:22:30;;;;;;;16.27;9.45;;;17.30;99.90;;;;;;5031626;28;20033;-76
2023/07/03 03:24:56;;;;;;;20.80;9.55;;;17.40;99.90;;;;;;5042361;28;20072;-80
2023/07/03 03:27:23;;;;;;;15.93;8.98;;;17.40;99.90;;;;;;5058379;28;20038;-77
2023/07/03 03:29:50;;;;;;;19.77;10.88;;;17.40;99.90;;;;;;5045441;28;20208;-81
2023/07/03 03:32:18;;;;;;;17.65;9.13;;;17.40;99.90;;;;;;5064994;28;20034;-76
2023/07/03 03:34:44;;;;;;;22.70;9.95;;;17.50;99.90;;;;;;5033189;28;20041;-86
2023/07/03 03:37:10;;;;;;;22.80;9.50;;;17.50;99.90;;;;;;5046824;28;20038;-78
2023/07/03 03:39:37;;;;;;;16.10;8.93;;;17.50;99.90;;;;;;5018404;28;20055;-78
2023/07/03 03:42:06;;;;;;;16.45;8.32;;;17.60;99.90;;;;;;5045724;28;20025;-76
2023/07/03 03:44:32;;;;;;;20.27;9.32;;;17.50;99.90;;;;;;5055451;28;20491;-79
2023/07/03 03:46:59;;;;;;;17.02;9.18;;;17.60;99.90;;;;;;5022734;28;20084;-78
2023/07/03 03:49:27;;;;;;;20.42;8.32;;;17.60;99.90;;;;;;5027362;28;20045;-80
2023/07/03 03:51:54;;;;;;;19.40;9.35;;;17.60;99.90;;;;;;5038932;28;20045;-77
2023/07/03 03:54:22;;;;;;;17.73;7.88;;;17.60;99.90;;;;;;5023664;28;20506;-79
2023/07/03 03:56:48;;;;;;;22.67;9.23;;;17.60;99.90;;;;;;5017178;28;20041;-78
2023/07/03 03:59:15;;;;;;;14.68;7.85;;;17.60;99.90;;;;;;5008233;28;20045;-77
2023/07/03 04:01:42;;;;;;;16.58;8.70;;;17.60;99.90;;;;;;5023437;28;20040;-76
2023/07/03 04:04:09;;;;;;;19.73;9.70;;;17.60;99.90;;;;;;5028131;28;20065;-82
2023/07/03 04:06:37;;;;;;;21.63;9.23;;;17.60;99.90;;;;;;5039134;28;20033;-79
2023/07/03 04:09:04;;;;;;;21.88;11.00;;;17.60;99.90;;;;;;5033639;28;20044;-78
2023/07/03 04:11:31;;;;;;;21.73;9.05;;;17.60;99.90;;;;;;5029979;28;20052;-77
2023/07/03 04:13:57;;;;;;;16.42;9.18;;;17.60;99.90;;;;;;5027412;28;20029;-77
2023/07/03 04:16:25;;;;;;;22.08;9.15;;;17.60;99.90;;;;;;5042249;28;20037;-80
2023/07/03 04:18:51;;;;;;;22.38;8.52;;;17.60;99.90;;;;;;5036277;28;20041;-83
2023/07/03 04:21:18;;;;;;;22.15;10.25;;;17.60;99.90;;;;;;5028944;28;20049;-78
2023/07/03 04:23:44;;;;;;;22.15;9.63;;;17.60;99.90;;;;;;5050202;28;20051;-80
2023/07/03 04:26:10;;;;;;;21.10;10.18;;;17.50;99.90;;;;;;5050742;28;20020;-76
2023/07/03 04:28:36;;;;;;;17.15;9.10;;;17.50;99.90;;;;;;5049942;28;20030;-80
2023/07/03 04:31:02;;;;;;;21.15;9.90;;;17.50;99.90;;;;;;5041186;28;20048;-76
2023/07/03 04:33:28;;;;;;;18.73;9.15;;;17.50;99.90;;;;;;5036516;28;20056;-84
2023/07/03 04:35:55;;;;;;;19.92;9.48;;;17.40;99.90;;;;;;5050311;28;20480;-86
2023/07/03 04:38:23;;;;;;;21.88;10.68;;;17.30;99.90;;;;;;5049702;28;20026;-80
2023/07/03 04:40:53;;;;;;;16.80;9.45;;;17.40;99.90;;;;;;5063603;28;20032;-83
2023/07/03 04:43:20;;;;;;;23.13;10.20;;;17.30;99.90;;;;;;5025932;28;20037;-79
2023/07/03 04:45:52;;;;;;;16.67;8.90;;;17.40;99.90;;;;;;5029143;28;20030;-82
2023/07/03 04:48:19;;;;;;;18.80;9.30;;;17.30;99.90;;;;;;5043276;28;20036;-75
2023/07/03 04:50:49;;;;;;;17.77;9.00;;;17.20;99.90;;;;;;5046249;28;20026;-80
2023/07/03 04:53:20;;;;;;;17.07;8.43;;;17.30;99.90;;;;;;5041739;28;20449;-81
2023/07/03 04:55:47;;;;;;;15.23;9.52;;;17.30;99.90;;;;;;5048925;28;20040;-78
2023/07/03 04:58:14;;;;;;;19.00;8.60;;;17.20;99.90;;;;;;5043049;28;20044;-77
2023/07/03 05:00:41;;;;;;;20.52;9.65;;;17.20;99.90;;;;;;5062815;28;20472;-77
2023/07/03 05:03:08;;;;;;;22.00;9.50;;;17.20;99.90;;;;;;5065480;28;20036;-79
2023/07/03 05:05:35;;;;;;;19.33;8.63;;;17.20;99.90;;;;;;5067814;28;20049;-77
2023/07/03 05:08:01;;;;;;;20.75;9.27;;;17.30;99.90;;;;;;5065774;28;20462;-77
2023/07/03 05:10:27;;;;;;;16.95;8.43;;;17.30;99.90;;;;;;5048063;28;20045;-78
2023/07/03 05:12:53;;;;;;;21.30;9.93;;;17.30;99.90;;;;;;5055508;28;20036;-83
2023/07/03 05:15:20;;;;;;;17.05;7.78;;;17.30;99.90;;;;;;5057917;28;20029;-79
2023/07/03 05:17:52;;;;;;;19.50;7.55;;;17.30;99.90;;;;;;5063253;28;20033;-79
2023/07/03 05:20:19;;;;;;;16.77;8.40;;;17.30;99.90;;;;;;5064687;28;20041;-77
2023/07/03 05:22:45;;;;;;;22.42;8.88;;;17.40;99.90;;;;;;5074963;28;20027;-85
2023/07/03 05:25:13;;;;;;;22.33;7.93;;;17.40;99.90;;;;;;5076021;28;20055;-86
2023/07/03 05:27:40;;;;;;;22.40;8.70;;;17.40;99.90;;;;;;5071662;28;20031;-83
2023/07/03 05:30:07;;;;;;;18.27;8.15;;;17.40;99.90;;;;;;5074847;28;20035;-78
2023/07/03 05:32:35;;;;;;;16.58;8.20;;;17.40;99.90;;;;;;5071646;28;20038;-76
2023/07/03 05:35:04;;;;;;;15.98;7.70;;;17.40;99.90;;;;;;5066859;28;20036;-78
2023/07/03 05:37:30;;;;;;;16.23;8.25;;;17.40;99.90;;;;;;5065219;28;20051;-76
2023/07/03 05:39:56;;;;;;;16.15;8.70;;;17.40;99.90;;;;;;5049669;28;20036;-78
2023/07/03 05:42:23;;;;;;;14.32;7.53;;;17.50;99.90;;;;;;5054353;28;20029;-77
2023/07/03 05:44:50;;;;;;;17.80;8.93;;;17.50;99.90;;;;;;5070382;28;20046;-78
2023/07/03 05:47:16;;;;;;;16.40;7.68;;;17.60;99.90;;;;;;5038623;28;20044;-78
2023/07/03 05:49:43;;;;;;;13.88;7.28;;;17.60;99.90;;;;;;5067842;28;20037;-77
2023/07/03 05:52:10;;;;;;;19.60;8.52;;;17.60;99.90;;;;;;5062371;28;20028;-78
2023/07/03 05:54:37;;;;;;;16.25;7.22;;;17.60;99.90;;;;;;5063700;28;20029;-77
2023/07/03 05:57:06;;;;;;;18.95;8.68;;;17.70;99.90;;;;;;5066336;28;20029;-75
2023/07/03 05:59:34;;;;;;;15.50;7.28;;;17.80;99.90;;;;;;5057220;28;20049;-76
2023/07/03 06:02:04;;;;;;;14.73;7.38;;;17.90;99.90;;;;;;5050085;28;20342;-77
2023/07/03 06:04:30;;;;;;;13.80;6.32;;;18.10;99.90;;;;;;5049063;28;20041;-77
2023/07/03 06:06:56;;;;;;;19.50;7.57;;;18.20;99.90;;;;;;5055930;28;20052;-76
2023/07/03 06:09:23;;;;;;;19.92;8.15;;;18.30;99.90;;;;;;5047559;28;20036;-77
2023/07/03 06:11:50;;;;;;;14.82;7.32;;;18.20;99.90;;;;;;5038234;28;20056;-77
2023/07/03 06:14:17;;;;;;;14.00;5.47;;;18.20;99.90;;;;;;5063640;28;20045;-77
2023/07/03 06:16:48;;;;;;;17.17;5.45;;;18.30;99.90;;;;;;5050777;28;20033;-78
2023/07/03 06:19:17;;;;;;;13.30;4.82;;;18.30;99.90;;;;;;5051477;28;20424;-79
2023/07/03 06:21:43;;;;;;;21.45;5.80;;;18.40;99.90;;;;;;5050232;28;20041;-78
2023/07/03 06:24:11;;;;;;;16.27;5.25;;;18.50;99.90;;;;;;5051964;28;20072;-76
2023/07/03 06:26:38;;;;;;;10.98;4.47;;;18.60;99.90;;;;;;5051234;28;20029;-75
2023/07/03 06:29:06;;;;;;;17.48;5.68;;;18.40;99.90;;;;;;5051568;28;20384;-77
2023/07/03 06:31:33;;;;;;;15.75;5.72;;;18.30;99.90;;;;;;5056959;28;20051;-77
2023/07/03 06:33:59;;;;;;;19.25;7.15;;;18.30;99.90;;;;;;5050922;28;20041;-76
2023/07/03 06:36:26;;;;;;;16.38;5.93;;;18.20;99.90;;;;;;5061588;28;20043;-75
2023/07/03 06:38:53;;;;;;;14.90;6.22;;;18.10;99.90;;;;;;5060057;28;20033;-75
2023/07/03 06:41:20;;;;;;;18.02;6.00;;;18.10;99.90;;;;;;5061270;28;20037;-76
2023/07/03 06:43:46;;;;;;;15.23;6.22;;;18.30;99.90;;;;;;5055815;28;20037;-78
2023/07/03 06:46:14;;;;;;;16.90;6.00;;;18.40;99.90;;;;;;5055842;28;20033;-76
2023/07/03 06:48:42;;;;;;;15.68;5.38;;;18.40;99.90;;;;;;5053909;28;20044;-83
2023/07/03 06:51:10;;;;;;;13.32;5.18;;;18.50;99.90;;;;;;5070995;28;20041;-81
2023/07/03 06:53:36;;;;;;;14.50;5.93;;;18.50;99.90;;;;;;5070853;28;20119;-86
2023/07/03 06:56:05;;;;;;;12.15;5.45;;;18.30;99.90;;;;;;5072228;28;20013;-77
2023/07/03 06:58:33;;;;;;;11.27;4.68;;;18.50;99.90;;;;;;5089276;28;20040;-78
2023/07/03 07:01:10;;;;;;;15.43;5.57;;;18.70;99.90;;;;;;5070322;28;20029;-82
2023/07/03 07:03:37;;;;;;;13.77;4.55;;;18.70;99.90;;;;;;5073150;28;20021;-80
2023/07/03 07:06:17;;;;;;;17.25;4.90;;;18.60;99.90;;;;;;5053480;28;20044;-75
2023/07/03 07:08:44;;;;;;;;;;;18.50;99.90;;;;;;5051926;28;20025;-75
2023/07/03 07:11:13;;;;;;;16.00;4.50;;;18.40;99.90;;;;;;5064251;28;19915;-81
2023/07/03 07:13:41;;;;;;;12.18;4.70;;;18.50;99.90;;;;;;5067046;28;20043;-79
2023/07/03 07:16:27;;;;;;;12.45;4.35;;;18.60;99.90;;;;;;5060414;28;20153;-76
2023/07/03 07:18:56;;;;;;;11.00;3.85;;;18.60;99.90;;;;;;5065215;28;20029;-80
2023/07/03 07:21:23;;;;;;;12.65;4.05;;;18.40;99.90;;;;;;5068458;28;20009;-77
2023/07/03 07:23:52;;;;;;;12.80;3.80;;;18.70;99.90;;;;;;5067566;28;20048;-82
2023/07/03 07:26:19;;;;;;;11.50;4.75;;;19.00;99.90;;;;;;5058232;28;20025;-79
2023/07/03 07:28:45;;;;;;;14.48;5.05;;;19.00;99.90;;;;;;5061513;28;20032;-79
2023/07/03 07:31:21;;;;;;;12.18;3.63;;;18.90;99.90;;;;;;5048034;28;20138;-76
2023/07/03 07:33:47;;;;;;;8.75;3.08;;;18.90;99.90;;;;;;5050652;28;20048;-85
2023/07/03 07:36:15;;;;;;;12.90;3.50;;;19.20;99.90;;;;;;5066575;28;20052;-75
2023/07/03 07:38:42;;;;;;;13.45;4.25;;;19.40;99.90;;;;;;5054458;28;20033;-76
2023/07/03 07:41:08;;;;;;;9.75;3.30;;;19.30;99.90;;;;;;5060493;28;20036;-80
2023/07/03 07:43:35;;;;;;;9.77;3.35;;;19.50;99.90;;;;;;5062977;28;20039;-87
2023/07/03 07:46:01;;;;;;;6.97;2.80;;;19.60;99.90;;;;;;5062459;28;20040;-75
2023/07/03 07:48:27;;;;;;;8.80;2.88;;;19.60;99.90;;;;;;5052625;28;20032;-76
2023/07/03 07:50:53;;;;;;;6.78;2.85;;;19.70;99.90;;;;;;5054420;28;20033;-76
2023/07/03 07:53:20;;;;;;;14.25;3.28;;;19.80;99.90;;;;;;5076847;28;20060;-76
2023/07/03 07:55:46;;;;;;;8.23;2.85;;;19.90;99.90;;;;;;5017145;28;20040;-80
2023/07/03 07:58:13;;;;;;;10.90;3.17;;;19.80;99.90;;;;;;5058728;28;20029;-77
2023/07/03 08:00:40;;;;;;;13.90;4.10;;;19.70;99.90;;;;;;5060151;28;20048;-76
2023/07/03 08:03:06;;;;;;;14.73;4.97;;;19.80;99.90;;;;;;5058214;28;20391;-79
2023/07/03 08:05:35;;;;;;;14.23;4.32;;;19.70;99.90;;;;;;5064026;28;20040;-74
2023/07/03 08:08:01;;;;;;;9.77;3.40;;;19.30;99.90;;;;;;5065959;28;20039;-77
2023/07/03 08:10:27;;;;;;;7.57;2.88;;;19.30;99.90;;;;;;5066972;28;20025;-78
2023/07/03 08:12:53;;;;;;;9.68;3.63;;;19.50;99.90;;;;;;5063086;28;20089;-77
2023/07/03 08:15:20;;;;;;;9.40;3.25;;;19.60;99.90;;;;;;5067418;28;20027;-77
2023/07/03 08:17:46;;;;;;;12.35;2.95;;;19.50;99.90;;;;;;5067234;28;20032;-76
2023/07/03 08:20:13;;;;;;;6.13;2.30;;;19.30;99.90;;;;;;5082394;28;20123;-83
2023/07/03 08:22:39;;;;;;;7.45;2.30;;;19.40;99.90;;;;;;5061783;28;20044;-75
2023/07/03 08:25:07;;;;;;;7.85;2.63;;;19.40;99.90;;;;;;5055809;28;20052;-75
2023/07/03 08:27:33;;;;;;;9.20;3.28;;;19.50;98.90;;;;;;5061167;28;20036;-75
2023/07/03 08:30:00;;;;;;;9.52;3.25;;;19.30;99.90;;;;;;5057488;28;20046;-80
2023/07/03 08:32:26;;;;;;;7.90;2.58;;;19.50;99.90;;;;;;5060917;28;20043;-78
2023/07/03 08:34:52;;;;;;;8.32;2.83;;;19.90;99.90;;;;;;5058179;28;20041;-77
2023/07/03 08:37:18;;;;;;;4.63;2.30;;;20.40;97.40;;;;;;5042379;28;20407;-73
2023/07/03 08:39:45;;;;;;;9.48;2.65;;;20.60;90.30;;;;;;5067349;28;20033;-81
2023/07/03 08:42:25;;;;;;;7.70;2.47;;;20.30;91.30;;;;;;5055419;28;20032;-78
2023/07/03 08:44:51;;;;;;;9.05;2.72;;;20.10;90.90;;;;;;5055307;28;20037;-76
2023/07/03 08:47:24;;;;;;;9.70;2.80;;;19.60;97.90;;;;;;5061538;28;20345;-77
2023/07/03 08:49:51;;;;;;;5.75;2.30;;;19.50;98.60;;;;;;5059750;28;20060;-77
2023/07/03 08:52:25;;;;;;;9.40;3.08;;;19.50;99.60;;;;;;5058430;28;20045;-77
2023/07/03 08:54:53;;;;;;;7.40;2.33;;;19.60;99.90;;;;;;5058763;28;20040;-74
2023/07/03 08:57:20;;;;;;;5.90;2.38;;;19.60;99.90;;;;;;5057354;28;20033;-75
2023/07/03 08:59:47;;;;;;;6.95;2.65;;;19.30;99.90;;;;;;5060615;28;20038;-79
2023/07/03 09:02:18;;;;;;;7.78;2.80;;;19.20;99.90;;;;;;5045646;28;20472;-76
2023/07/03 09:05:07;;;;;;;7.85;3.47;;;19.10;99.90;;;;;;5047745;28;20045;-77
2023/07/03 09:07:37;;;;;;;6.88;2.22;;;19.20;99.90;;;;;;5053180;28;20044;-78
2023/07/03 09:10:24;;;;;;;5.85;2.20;;;19.30;99.90;;;;;;5053308;28;20036;-82
2023/07/03 09:12:53;;;;;;;5.80;2.03;;;19.30;99.90;;;;;;5058465;28;20048;-79
2023/07/03 09:15:28;;;;;;;5.13;1.90;;;19.70;99.90;;;;;;5053985;28;20463;-79
2023/07/03 09:17:58;;;;;;;10.15;2.53;;;20.00;99.90;;;;;;5066053;28;20037;-75
2023/07/03 09:20:26;;;;;;;7.15;1.98;;;20.00;99.90;;;;;;5062556;28;20037;-77
2023/07/03 09:23:14;;;;;;;5.93;2.10;;;19.90;99.90;;;;;;5059685;28;20049;-77
2023/07/03 09:25:52;;;;;;;7.18;2.80;;;19.90;99.90;;;;;;5073534;28;20049;-75
2023/07/03 09:28:19;;;;;;;9.35;2.65;;;20.10;99.90;;;;;;5044727;28;20049;-78
2023/07/03 09:30:46;;;;;;;6.70;2.08;;;20.20;99.90;;;;;;5057935;28;20025;-78
2023/07/03 09:33:12;;;;;;;8.07;2.20;;;20.20;99.90;;;;;;5062069;28;20040;-81
2023/07/03 09:35:40;;;;;;;5.13;1.80;;;20.20;99.90;;;;;;5064842;28;20040;-76
2023/07/03 09:38:24;;;;;;;8.80;2.95;;;20.20;99.90;;;;;;5058543;28;20374;-75
2023/07/03 09:40:53;;;;;;;5.85;2.20;;;20.30;99.90;;;;;;5062596;28;20037;-75
2023/07/03 09:43:21;;;;;;;4.43;2.20;;;20.10;99.90;;;;;;5066350;28;20541;-82
2023/07/03 09:45:49;;;;;;;8.48;2.85;;;19.80;99.90;;;;;;5068356;28;20041;-78
2023/07/03 09:48:26;;;;;;;6.18;2.00;;;19.50;99.90;;;;;;5065117;28;20033;-75
2023/07/03 09:50:52;;;;;;;7.50;2.30;;;19.40;99.90;;;;;;5059513;28;20033;-75
2023/07/03 09:53:21;;;;;;;7.95;2.20;;;19.50;99.90;;;;;;5078165;28;20051;-77
2023/07/03 09:55:54;;;;;;;5.65;2.35;;;19.50;99.90;;;;;;5051117;28;20500;-76
2023/07/03 09:58:26;;;;;;;6.45;2.50;;;19.70;99.90;;;;;;5052854;28;20030;-76
2023/07/03 10:00:54;;;;;;;8.27;2.30;;;19.70;99.90;;;;;;5053107;28;20495;-76
2023/07/03 10:03:28;;;;;;;7.32;2.95;;;19.60;99.90;;;;;;5064268;28;20039;-86
2023/07/03 10:06:11;;;;;;;5.38;2.40;;;19.60;99.90;;;;;;5062404;28;20044;-77
2023/07/03 10:08:44;;;;;;;7.47;2.90;;;19.70;99.90;;;;;;5053742;28;20035;-77
2023/07/03 10:11:11;;;;;;;7.28;2.17;;;19.80;99.90;;;;;;5050913;28;20032;-77
2023/07/03 10:13:44;;;;;;;5.43;2.10;;;19.90;99.90;;;;;;5063071;28;20044;-86
2023/07/03 10:16:12;;;;;;;5.68;2.05;;;20.00;99.90;;;;;;5068764;28;20023;-78
2023/07/03 10:18:44;;;;;;;7.00;2.10;;;20.40;99.90;;;;;;5072653;28;20021;-77
2023/07/03 10:21:14;;;;;;;6.13;2.22;;;21.20;99.90;;;;;;5068877;28;20018;-82
2023/07/03 10:23:41;;;;;;;5.05;2.00;;;21.80;99.90;;;;;;5073709;28;20029;-88
2023/07/03 10:26:20;;;;;;;7.95;1.98;;;22.10;95.10;;;;;;5070596;28;20025;-89
2023/07/03 10:28:56;;;;;;;5.57;2.53;;;21.90;96.30;;;;;;5073154;28;20040;-79
2023/07/03 10:31:49;;;;;;;9.77;2.40;;;22.20;92.50;;;;;;5057006;28;20045;-74
2023/07/03 10:34:44;;;;;;;5.93;2.30;;;22.10;92.70;;;;;;5051604;28;20045;-76
2023/07/03 10:37:13;;;;;;;7.40;3.03;;;22.00;96.20;;;;;;5065609;28;20043;-76
2023/07/03 10:40:00;;;;;;;7.18;2.97;;;22.60;94.50;;;;;;5068388;28;20043;-77
2023/07/03 10:42:33;;;;;;;7.75;2.90;;;23.10;77.50;;;;;;5043371;28;20045;-78
2023/07/03 10:45:08;;;;;;;5.15;2.50;;;22.50;76.40;;;;;;5066004;28;20040;-78
2023/07/03 10:47:46;;;;;;;5.45;2.28;;;22.30;90.80;;;;;;5063179;28;20037;-78
2023/07/03 10:50:14;;;;;;;5.40;2.60;;;22.00;93.30;;;;;;5066001;28;20013;-78
2023/07/03 10:53:00;;;;;;;6.50;2.50;;;21.60;99.90;;;;;;5062710;28;20033;-76
2023/07/03 10:55:51;;;;;;;5.38;1.90;;;22.10;95.20;;;;;;5062075;28;20057;-77
2023/07/03 10:58:43;;;;;;;10.40;2.95;;;22.10;98.10;;;;;;5045268;28;20029;-79
2023/07/03 11:01:33;;;;;;;8.77;2.60;;;22.20;94.90;;;;;;5058750;28;20052;-77
2023/07/03 11:04:08;;;;;;;5.97;2.45;;;22.00;98.30;;;;;;5061164;28;20038;-80
2023/07/03 11:06:54;;;;;;;7.30;3.38;;;22.20;91.20;;;;;;5068238;28;20040;-83
2023/07/03 11:09:42;;;;;;;11.30;2.50;;;21.70;98.40;;;;;;5066986;28;20328;-81
2023/07/03 11:12:30;;;;;;;7.20;2.22;;;22.00;98.40;;;;;;5064765;28;20025;-78
2023/07/03 11:15:05;;;;;;;8.05;1.92;;;22.10;97.50;;;;;;5070110;28;20041;-76
2023/07/03 11:17:44;;;;;;;7.97;2.53;;;21.90;97.80;;;;;;5070413;28;20035;-80
2023/07/03 11:20:35;;;;;;;6.15;1.83;;;21.80;98.90;;;;;;5052796;28;20009;-87
2023/07/03 11:23:07;;;;;;;9.60;2.20;;;21.70;99.90;;;;;;5070447;28;20021;-77
2023/07/03 11:25:49;;;;;;;8.07;2.42;;;21.70;99.90;;;;;;5066018;28;20041;-77
2023/07/03 11:28:26;;;;;;;5.38;2.03;;;21.80;99.90;;;;;;5055705;28;20025;-76
2023/07/03 11:30:54;;;;;;;6.38;2.35;;;21.90;99.90;;;;;;5070795;28;20025;-80
2023/07/03 11:33:21;;;;;;;6.43;2.35;;;21.90;99.60;;;;;;5070743;28;20031;-84
2023/07/03 11:35:59;;;;;;;7.53;1.60;;;21.80;99.90;;;;;;5071138;28;20051;-83
2023/07/03 11:38:27;;;;;;;10.40;2.85;;;21.80;99.90;;;;;;5070757;28;20013;-78
2023/07/03 11:40:53;;;;;;;7.65;2.10;;;21.80;99.90;;;;;;5054863;28;20032;-81
2023/07/03 11:43:41;;;;;;;7.63;2.28;;;21.80;99.90;;;;;;5071055;28;20029;-75
2023/07/03 11:46:24;;;;;;;8.32;2.45;;;21.90;99.90;;;;;;5063283;28;20028;-80
2023/07/03 11:48:56;;;;;;;7.13;1.67;;;21.90;99.90;;;;;;5069695;28;20037;-78
2023/07/03 11:51:37;;;;;;;11.27;2.25;;;22.00;99.90;;;;;;5065505;28;20037;-78
2023/07/03 11:54:16;;;;;;;6.13;1.45;;;22.20;97.80;;;;;;5059703;28;20061;-83
2023/07/03 11:56:46;;;;;;;4.83;2.07;;;22.50;96.30;;;;;;5064681;28;20036;-75
2023/07/03 11:59:17;;;;;;;;;;;22.70;97.20;;;;;;5063377;28;20041;-81
2023/07/03 12:01:43;;;;;;;9.80;1.73;;;22.70;89.00;;;;;;5063978;28;19936;-85
2023/07/03 12:04:09;;;;;;;8.05;1.75;;;22.80;93.10;;;;;;5062170;28;20051;-87
2023/07/03 12:06:39;;;;;;;7.55;2.03;;;22.90;83.80;;;;;;5072467;28;20041;-84
2023/07/03 12:09:29;;;;;;;4.97;1.65;;;22.60;78.50;;;;;;5070596;28;20345;-80
2023/07/03 12:12:06;;;;;;;5.43;1.55;;;22.60;90.30;;;;;;5069633;28;20021;-78
2023/07/03 12:14:44;;;;;;;4.35;1.67;;;22.70;81.80;;;;;;5063521;28;20039;-79
2023/07/03 12:17:24;;;;;;;7.63;2.33;;;22.50;86.30;;;;;;5071361;28;20036;-86
2023/07/03 12:20:10;;;;;;;7.32;3.03;;;22.60;83.90;;;;;;5067959;28;20022;-76
2023/07/03 12:22:56;;;;;;;4.85;1.70;;;22.50;91.00;;;;;;5055084;28;20033;-77
2023/07/03 12:25:29;;;;;;;8.02;2.50;;;22.50;84.10;;;;;;5044034;28;20045;-76
2023/07/03 12:28:09;;;;;;;6.43;2.00;;;22.50;89.40;;;;;;5040461;28;20025;-77
2023/07/03 12:30:36;;;;;;;;;;;22.70;89.00;;;;;;5051735;28;20033;-76
2023/07/03 12:33:03;;;;;;;6.22;2.00;;;23.10;81.60;;;;;;5025492;28;19917;-77
2023/07/03 12:35:42;;;;;;;8.15;1.80;;;22.60;86.40;;;;;;5045308;28;20479;-77
2023/07/03 12:38:10;;;;;;;5.15;1.70;;;22.40;90.50;;;;;;5050200;28;20033;-79
2023/07/03 12:40:44;;;;;;;4.43;1.50;;;22.50;93.20;;;;;;5045093;28;20037;-77
2023/07/03 12:43:14;;;;;;;4.32;1.70;;;22.80;91.20;;;;;;5063471;28;20039;-83
2023/07/03 12:45:41;;;;;;;7.50;1.88;;;22.70;93.30;;;;;;5065869;28;20047;-75
2023/07/03 12:48:09;;;;;;;4.60;1.45;;;22.70;93.70;;;;;;5069932;28;20470;-77
2023/07/03 12:50:56;;;;;;;7.47;2.10;;;22.40;97.80;;;;;;5071516;28;20017;-75
2023/07/03 12:53:24;;;;;;;3.92;1.67;;;22.30;99.90;;;;;;5066176;28;20043;-82
2023/07/03 12:55:59;;;;;;;4.28;1.45;;;22.40;96.40;;;;;;5069146;28;20039;-77